Time;durP1;ratioP1;P1;durP2;ratioP2;P2;SDS_P1;SDS_P2;PMS_P1;PMS_P2;Temp;Humidity;BMP_temperature;BMP_pressure;BME280_temperature;BME280_humidity;BME280_pressure;Samples;Min_cycle;Max_cycle;Signal;HPM_P1;HPM_P2
2023/11/07 00:02:41;;;;;;;3.15;0.80;;;9.90;99.90;;;;;;4962845;28;20105;-77
2023/11/07 00:05:27;;;;;;;5.55;1.20;;;9.90;99.90;;;;;;4947627;28;20819;-77
2023/11/07 00:08:13;;;;;;;5.18;0.98;;;9.90;99.90;;;;;;4959114;28;20042;-76
2023/11/07 00:10:59;;;;;;;4.55;0.98;;;9.90;99.90;;;;;;4978526;28;20081;-77
2023/11/07 00:13:47;;;;;;;3.78;0.90;;;10.00;99.90;;;;;;4990416;28;20133;-77
2023/11/07 00:16:36;;;;;;;3.88;1.05;;;9.90;99.90;;;;;;4976406;28;20061;-77
2023/11/07 00:19:22;;;;;;;3.53;0.80;;;9.90;99.90;;;;;;4976572;28;20039;-76
2023/11/07 00:22:08;;;;;;;2.33;0.93;;;9.90;99.90;;;;;;4975014;28;20352;-77
2023/11/07 00:24:54;;;;;;;5.40;1.10;;;9.90;99.90;;;;;;4991195;28;20034;-76
2023/11/07 00:27:40;;;;;;;3.78;0.90;;;10.00;99.90;;;;;;4969091;28;20071;-77
2023/11/07 00:30:26;;;;;;;5.03;1.30;;;10.00;99.90;;;;;;4978023;28;20041;-77
2023/11/07 00:33:12;;;;;;;2.60;0.98;;;9.90;99.90;;;;;;4963937;28;20038;-76
2023/11/07 00:35:58;;;;;;;2.90;1.48;;;9.90;99.90;;;;;;4979303;28;20042;-76
2023/11/07 00:38:44;;;;;;;3.33;0.98;;;9.90;99.90;;;;;;4956044;28;20348;-77
2023/11/07 00:41:30;;;;;;;3.90;1.08;;;10.00;99.90;;;;;;4982003;28;20050;-77
2023/11/07 00:44:18;;;;;;;1.88;0.60;;;10.00;99.90;;;;;;4988995;28;20422;-77
2023/11/07 00:47:04;;;;;;;5.43;1.30;;;9.90;99.90;;;;;;4977509;28;20610;-77
2023/11/07 00:49:50;;;;;;;1.67;1.00;;;9.90;99.90;;;;;;5005260;28;20273;-77
2023/11/07 00:52:37;;;;;;;3.08;1.00;;;9.90;99.90;;;;;;4966206;28;20038;-77
2023/11/07 00:55:23;;;;;;;5.13;1.13;;;9.90;99.90;;;;;;4954651;28;20177;-77
2023/11/07 00:58:09;;;;;;;3.72;1.13;;;9.90;99.90;;;;;;4979356;28;20038;-77
2023/11/07 01:00:55;;;;;;;4.88;1.10;;;9.90;99.90;;;;;;4994071;28;20041;-76
2023/11/07 01:03:41;;;;;;;2.10;0.90;;;9.90;99.90;;;;;;4995804;28;20073;-76
2023/11/07 01:06:27;;;;;;;5.93;1.38;;;9.90;99.90;;;;;;4975846;28;20049;-77
2023/11/07 01:09:13;;;;;;;7.40;1.50;;;9.90;99.90;;;;;;4992324;28;20037;-76
2023/11/07 01:11:59;;;;;;;9.10;1.33;;;9.90;99.90;;;;;;4974216;28;20046;-77
2023/11/07 01:14:45;;;;;;;5.00;1.30;;;9.80;99.90;;;;;;4966248;28;20034;-77
2023/11/07 01:17:31;;;;;;;7.53;2.00;;;9.90;99.90;;;;;;4982281;28;20046;-77
2023/11/07 01:20:17;;;;;;;5.72;1.95;;;9.90;99.90;;;;;;4996637;28;20478;-77
2023/11/07 01:23:03;;;;;;;4.25;1.83;;;9.90;99.90;;;;;;4967948;28;20038;-77
2023/11/07 01:25:49;;;;;;;9.15;2.28;;;9.90;99.90;;;;;;4960479;28;20049;-77
2023/11/07 01:28:35;;;;;;;5.35;1.67;;;9.90;99.90;;;;;;4963518;28;20042;-77
2023/11/07 01:31:22;;;;;;;5.65;2.00;;;9.90;99.90;;;;;;4960667;28;20419;-76
2023/11/07 01:34:08;;;;;;;9.25;2.30;;;10.00;99.90;;;;;;4957684;28;20132;-76
2023/11/07 01:36:54;;;;;;;6.30;1.90;;;10.00;99.90;;;;;;4963421;28;20052;-76
2023/11/07 01:39:40;;;;;;;6.60;1.73;;;10.00;99.90;;;;;;4943191;28;20046;-76
2023/11/07 01:42:26;;;;;;;5.75;1.67;;;10.00;99.90;;;;;;4943817;28;20047;-77
2023/11/07 01:45:12;;;;;;;4.22;1.33;;;10.00;99.90;;;;;;4969364;28;20050;-77
2023/11/07 01:47:58;;;;;;;6.80;1.85;;;10.00;99.90;;;;;;4965826;28;20427;-77
2023/11/07 01:50:44;;;;;;;5.25;1.65;;;10.00;99.90;;;;;;4979768;28;20050;-77
2023/11/07 01:53:30;;;;;;;4.47;1.60;;;10.00;99.90;;;;;;4956883;28;20046;-77
2023/11/07 01:56:16;;;;;;;3.25;1.63;;;10.00;99.90;;;;;;4966783;28;20456;-77
2023/11/07 01:59:02;;;;;;;7.70;1.95;;;9.90;99.90;;;;;;4981906;28;20038;-77
2023/11/07 02:01:48;;;;;;;7.88;2.33;;;10.00;99.90;;;;;;4959709;28;20077;-77
2023/11/07 02:04:34;;;;;;;6.45;3.08;;;9.90;99.90;;;;;;4964468;28;20034;-77
2023/11/07 02:07:20;;;;;;;5.68;2.60;;;9.90;99.90;;;;;;4978332;28;20491;-76
2023/11/07 02:10:06;;;;;;;4.80;2.10;;;9.90;99.90;;;;;;4996579;28;20038;-77
2023/11/07 02:12:53;;;;;;;5.25;1.85;;;9.90;99.90;;;;;;4994574;28;20038;-77
2023/11/07 02:15:39;;;;;;;6.83;2.00;;;9.90;99.90;;;;;;4970768;28;20038;-77
2023/11/07 02:18:25;;;;;;;5.20;2.00;;;9.90;99.90;;;;;;4963680;28;20285;-77
2023/11/07 02:21:11;;;;;;;5.45;2.22;;;9.90;99.90;;;;;;4993963;28;20060;-77
2023/11/07 02:23:57;;;;;;;4.82;1.98;;;9.90;99.90;;;;;;4977096;28;20049;-77
2023/11/07 02:26:43;;;;;;;5.13;1.73;;;9.90;99.90;;;;;;4978700;28;21874;-77
2023/11/07 02:29:29;;;;;;;3.90;1.70;;;9.90;99.90;;;;;;4996821;28;20034;-77
2023/11/07 02:32:15;;;;;;;5.05;1.40;;;9.90;99.90;;;;;;4972625;28;20046;-77
2023/11/07 02:35:01;;;;;;;2.80;1.00;;;9.90;99.90;;;;;;4975915;28;20475;-77
2023/11/07 02:37:48;;;;;;;2.78;0.90;;;9.90;99.90;;;;;;4967551;28;20112;-75
2023/11/07 02:40:34;;;;;;;2.90;1.40;;;9.90;99.90;;;;;;4996811;28;20046;-75
2023/11/07 02:43:20;;;;;;;2.03;1.08;;;9.90;99.90;;;;;;4993805;28;20375;-75
2023/11/07 02:46:07;;;;;;;2.97;1.13;;;9.80;99.90;;;;;;4938967;28;20038;-75
2023/11/07 02:48:53;;;;;;;5.25;2.28;;;9.80;99.90;;;;;;4982188;28;20050;-75
2023/11/07 02:51:39;;;;;;;4.72;1.38;;;9.80;99.90;;;;;;4980485;28;20382;-75
2023/11/07 02:54:26;;;;;;;1.85;0.93;;;9.80;99.90;;;;;;4976204;28;20842;-75
2023/11/07 02:57:12;;;;;;;4.43;1.35;;;9.80;99.90;;;;;;4949749;28;20057;-75
2023/11/07 02:59:58;;;;;;;4.55;1.90;;;9.70;99.90;;;;;;4978807;28;20169;-75
2023/11/07 03:02:44;;;;;;;3.97;1.35;;;9.70;99.90;;;;;;4955568;28;20052;-74
2023/11/07 03:05:30;;;;;;;5.85;1.30;;;9.80;99.90;;;;;;4987052;28;20416;-75
2023/11/07 03:08:17;;;;;;;5.25;1.02;;;9.80;99.90;;;;;;4981783;28;20041;-74
2023/11/07 03:11:03;;;;;;;4.90;1.40;;;9.80;99.90;;;;;;4980506;28;20046;-74
2023/11/07 03:13:49;;;;;;;5.20;1.50;;;9.70;99.90;;;;;;4963470;28;20046;-75
2023/11/07 03:16:36;;;;;;;5.03;1.40;;;9.70;99.90;;;;;;4979660;28;20034;-75
2023/11/07 03:19:22;;;;;;;4.63;1.30;;;9.70;99.90;;;;;;4978322;28;20100;-76
2023/11/07 03:22:08;;;;;;;3.55;1.60;;;9.70;99.90;;;;;;4975102;28;20050;-76
2023/11/07 03:24:54;;;;;;;5.78;1.80;;;9.70;99.90;;;;;;4952139;28;20035;-76
2023/11/07 03:27:40;;;;;;;7.93;1.80;;;9.70;99.90;;;;;;4949519;28;20104;-76
2023/11/07 03:30:27;;;;;;;4.60;1.70;;;9.60;99.90;;;;;;4961090;28;20043;-75
2023/11/07 03:33:16;;;;;;;10.40;2.00;;;9.60;99.90;;;;;;4973133;28;20046;-75
2023/11/07 03:36:03;;;;;;;4.35;1.75;;;9.70;99.90;;;;;;4959248;28;20118;-76
2023/11/07 03:38:49;;;;;;;6.82;2.28;;;9.60;99.90;;;;;;4954700;28;20260;-75
2023/11/07 03:41:38;;;;;;;5.88;2.40;;;9.60;99.90;;;;;;4958044;28;20078;-75
2023/11/07 03:44:24;;;;;;;7.63;2.90;;;9.60;99.90;;;;;;4964444;28;20050;-75
2023/11/07 03:47:10;;;;;;;8.05;2.65;;;9.60;99.90;;;;;;4971208;28;20046;-75
2023/11/07 03:49:56;;;;;;;8.50;2.85;;;9.60;99.90;;;;;;4960927;28;20039;-75
2023/11/07 03:52:42;;;;;;;7.72;3.38;;;9.60;99.90;;;;;;4953865;28;20357;-75
2023/11/07 03:55:28;;;;;;;10.40;3.47;;;9.60;99.90;;;;;;4961048;28;20058;-76
2023/11/07 03:58:14;;;;;;;5.93;2.83;;;9.60;99.90;;;;;;4965443;28;20061;-75
2023/11/07 04:01:00;;;;;;;9.02;3.10;;;9.60;99.90;;;;;;4941501;28;20078;-75
2023/11/07 04:03:46;;;;;;;10.90;2.85;;;9.60;99.90;;;;;;4952682;28;20122;-75
2023/11/07 04:06:32;;;;;;;8.23;2.63;;;9.70;99.90;;;;;;4945910;28;20043;-76
2023/11/07 04:09:19;;;;;;;5.07;1.90;;;9.70;99.90;;;;;;4954248;28;20490;-76
2023/11/07 04:12:05;;;;;;;4.82;1.50;;;9.70;99.90;;;;;;4956762;28;20113;-75
2023/11/07 04:14:54;;;;;;;3.10;1.10;;;9.70;99.90;;;;;;4968683;28;20189;-75
2023/11/07 04:17:40;;;;;;;4.18;1.02;;;9.60;99.90;;;;;;4938509;28;20058;-75
2023/11/07 04:20:26;;;;;;;3.95;1.20;;;9.60;99.90;;;;;;4972409;28;20054;-76
2023/11/07 04:23:15;;;;;;;3.47;1.00;;;9.50;99.90;;;;;;4966731;28;20414;-76
2023/11/07 04:26:02;;;;;;;6.25;1.13;;;9.50;99.90;;;;;;4974960;28;20049;-76
2023/11/07 04:28:48;;;;;;;3.35;1.13;;;9.50;99.90;;;;;;4966730;28;20093;-76
2023/11/07 04:31:37;;;;;;;3.70;1.20;;;9.50;99.90;;;;;;4975262;28;20043;-76
2023/11/07 04:34:23;;;;;;;2.50;1.23;;;9.50;99.90;;;;;;4964393;28;20047;-75
2023/11/07 04:37:09;;;;;;;6.10;1.27;;;9.50;99.90;;;;;;4971854;28;20074;-75
2023/11/07 04:39:55;;;;;;;3.58;1.00;;;9.40;99.90;;;;;;4970181;28;20136;-75
2023/11/07 04:42:41;;;;;;;3.78;1.20;;;9.40;99.90;;;;;;4956620;28;20053;-76
2023/11/07 04:45:27;;;;;;;4.80;1.00;;;9.40;99.90;;;;;;4955185;28;20047;-75
2023/11/07 04:48:13;;;;;;;4.65;1.35;;;9.40;99.90;;;;;;4963255;28;20456;-75
2023/11/07 04:51:00;;;;;;;4.32;1.15;;;9.40;99.90;;;;;;4945354;28;20042;-76
2023/11/07 04:53:49;;;;;;;4.03;1.58;;;9.40;99.90;;;;;;4964922;28;20136;-75
2023/11/07 04:56:35;;;;;;;4.75;1.50;;;9.40;99.90;;;;;;4980077;28;20046;-75
2023/11/07 04:59:24;;;;;;;5.47;1.88;;;9.40;99.90;;;;;;4966080;28;20081;-76
2023/11/07 05:02:10;;;;;;;4.43;2.13;;;9.40;99.90;;;;;;4978810;28;20046;-75
2023/11/07 05:04:56;;;;;;;5.75;2.40;;;9.40;99.90;;;;;;5002305;28;20046;-75
2023/11/07 05:07:42;;;;;;;7.72;2.42;;;9.50;99.90;;;;;;4978561;28;20475;-75
2023/11/07 05:10:29;;;;;;;8.80;2.83;;;9.50;99.90;;;;;;4977727;28;20045;-75
2023/11/07 05:13:16;;;;;;;6.43;2.45;;;9.50;99.90;;;;;;4985749;28;20100;-75
2023/11/07 05:16:02;;;;;;;9.15;3.58;;;9.40;99.90;;;;;;4991215;28;20053;-75
2023/11/07 05:18:48;;;;;;;8.75;2.33;;;9.40;99.90;;;;;;4981637;28;20042;-75
2023/11/07 05:21:35;;;;;;;10.07;3.15;;;9.40;99.90;;;;;;4973336;28;20063;-75
2023/11/07 05:24:22;;;;;;;5.22;2.03;;;9.40;99.90;;;;;;4948516;28;20055;-75
2023/11/07 05:27:07;;;;;;;4.53;1.80;;;9.30;99.90;;;;;;4986018;28;20042;-75
2023/11/07 05:29:54;;;;;;;7.72;2.22;;;9.30;99.90;;;;;;4957731;28;20039;-76
2023/11/07 05:32:40;;;;;;;7.88;2.10;;;9.40;99.90;;;;;;4967194;28;20073;-75
2023/11/07 05:35:26;;;;;;;7.70;2.30;;;9.30;99.90;;;;;;4964782;28;20050;-75
2023/11/07 05:38:12;;;;;;;7.63;1.80;;;9.30;99.90;;;;;;4981730;28;20133;-75
2023/11/07 05:40:58;;;;;;;5.40;2.03;;;9.30;99.90;;;;;;4982274;28;20053;-75
2023/11/07 05:43:44;;;;;;;8.02;1.70;;;9.30;99.90;;;;;;4978454;28;20061;-75
2023/11/07 05:46:30;;;;;;;7.45;2.05;;;9.30;99.90;;;;;;4980964;28;20100;-75
2023/11/07 05:49:16;;;;;;;5.95;2.05;;;9.30;99.90;;;;;;4980202;28;20030;-75
2023/11/07 05:52:03;;;;;;;6.18;1.58;;;9.30;99.90;;;;;;4993465;28;20372;-75
2023/11/07 05:54:49;;;;;;;5.32;1.70;;;9.30;99.90;;;;;;4968381;28;20744;-75
2023/11/07 05:57:35;;;;;;;7.40;2.35;;;9.30;99.90;;;;;;4966886;28;20102;-75
2023/11/07 06:00:21;;;;;;;6.40;1.75;;;9.30;99.90;;;;;;4993030;28;20096;-75
2023/11/07 06:03:08;;;;;;;5.93;1.90;;;9.30;99.90;;;;;;4949656;28;20046;-75
2023/11/07 06:05:54;;;;;;;5.78;1.52;;;9.30;99.90;;;;;;4966036;28;20034;-75
2023/11/07 06:08:40;;;;;;;5.97;1.23;;;9.30;99.90;;;;;;4981296;28;20166;-75
2023/11/07 06:11:26;;;;;;;5.35;1.60;;;9.20;99.90;;;;;;4993807;28;20038;-75
2023/11/07 06:14:12;;;;;;;6.82;2.22;;;9.20;99.90;;;;;;4992743;28;20064;-75
2023/11/07 06:16:58;;;;;;;5.55;2.33;;;9.20;99.90;;;;;;4991860;28;20046;-75
2023/11/07 06:19:44;;;;;;;4.55;1.50;;;9.20;99.90;;;;;;4970925;28;20051;-75
2023/11/07 06:22:30;;;;;;;7.80;1.30;;;9.20;99.90;;;;;;4985316;28;20153;-76
2023/11/07 06:25:16;;;;;;;5.80;1.83;;;9.40;99.90;;;;;;4963281;28;20062;-76
2023/11/07 06:28:03;;;;;;;7.53;1.90;;;9.40;99.90;;;;;;4977480;28;20065;-76
2023/11/07 06:30:51;;;;;;;4.22;1.98;;;9.40;99.90;;;;;;4981437;28;20178;-75
2023/11/07 06:33:37;;;;;;;5.72;2.30;;;9.40;99.90;;;;;;4982665;28;20053;-76
2023/11/07 06:36:24;;;;;;;7.65;2.03;;;9.50;99.90;;;;;;4970065;28;20993;-76
2023/11/07 06:39:11;;;;;;;4.63;1.98;;;9.50;99.90;;;;;;4963259;28;20046;-76
2023/11/07 06:41:58;;;;;;;5.82;2.30;;;9.50;99.90;;;;;;4960291;28;20379;-75
2023/11/07 06:44:44;;;;;;;7.78;2.05;;;9.60;99.90;;;;;;4962725;28;20034;-75
2023/11/07 06:47:30;;;;;;;11.55;3.00;;;9.50;99.90;;;;;;4980322;28;20496;-76
2023/11/07 06:50:17;;;;;;;6.15;1.95;;;9.50;99.90;;;;;;4967628;28;20124;-76
2023/11/07 06:53:04;;;;;;;5.45;1.80;;;9.50;99.90;;;;;;4980565;28;20049;-76
2023/11/07 06:55:50;;;;;;;4.32;1.30;;;9.50;99.90;;;;;;4972741;28;20442;-75
2023/11/07 06:58:36;;;;;;;6.63;1.60;;;9.50;99.90;;;;;;4973607;28;20748;-76
2023/11/07 07:01:25;;;;;;;6.95;1.50;;;9.60;99.90;;;;;;4981783;28;20042;-76
2023/11/07 07:04:11;;;;;;;3.58;1.45;;;9.60;99.90;;;;;;4970436;28;20050;-76
2023/11/07 07:06:57;;;;;;;4.30;1.63;;;9.60;99.90;;;;;;4981333;28;20045;-76
2023/11/07 07:09:43;;;;;;;3.72;1.30;;;9.60;99.90;;;;;;4981539;28;20135;-75
2023/11/07 07:12:29;;;;;;;2.63;1.20;;;9.60;99.90;;;;;;4967528;28;20041;-76
2023/11/07 07:15:15;;;;;;;4.97;1.63;;;9.70;99.90;;;;;;4968469;28;20463;-76
2023/11/07 07:18:05;;;;;;;6.45;1.85;;;9.70;99.90;;;;;;4965237;28;20498;-76
2023/11/07 07:20:53;;;;;;;3.53;1.48;;;9.70;99.90;;;;;;4993886;28;20137;-76
2023/11/07 07:23:42;;;;;;;;;;;9.70;99.90;;;;;;4981343;28;20076;-76
2023/11/07 07:26:28;;;;;;;4.72;1.92;;;9.70;99.90;;;;;;4994232;28;20319;-76
2023/11/07 07:29:15;;;;;;;4.82;1.73;;;9.70;99.90;;;;;;4995085;28;20038;-76
2023/11/07 07:32:03;;;;;;;5.57;1.85;;;9.80;99.90;;;;;;4962567;28;20046;-76
2023/11/07 07:34:49;;;;;;;5.90;1.40;;;9.80;99.90;;;;;;4961672;28;20434;-77
2023/11/07 07:37:35;;;;;;;4.38;1.58;;;9.90;99.90;;;;;;4981595;28;20065;-77
2023/11/07 07:40:25;;;;;;;9.23;2.10;;;10.00;99.90;;;;;;4994648;28;20065;-77
2023/11/07 07:43:11;;;;;;;8.25;2.30;;;10.00;99.90;;;;;;4979645;28;20042;-76
2023/11/07 07:45:57;;;;;;;4.95;1.30;;;10.00;99.90;;;;;;4978468;28;20038;-76
2023/11/07 07:48:45;;;;;;;7.43;1.58;;;10.10;99.90;;;;;;4981821;28;20034;-76
2023/11/07 07:51:32;;;;;;;5.47;1.30;;;10.10;99.90;;;;;;4968676;28;20053;-76
2023/11/07 07:54:22;;;;;;;6.68;1.67;;;10.10;99.90;;;;;;4981347;28;20451;-76
2023/11/07 07:57:09;;;;;;;4.78;1.80;;;10.20;99.90;;;;;;4981685;28;20048;-76
2023/11/07 07:59:56;;;;;;;5.95;1.45;;;10.20;99.90;;;;;;5006605;28;20117;-77
2023/11/07 08:02:45;;;;;;;8.10;1.98;;;10.30;99.90;;;;;;4989966;28;20391;-77
2023/11/07 08:05:33;;;;;;;6.18;1.63;;;10.30;99.90;;;;;;4970665;28;20074;-77
2023/11/07 08:08:19;;;;;;;;;;;10.30;99.90;;;;;;4962872;28;20451;-77
2023/11/07 08:11:07;;;;;;;3.05;1.25;;;10.40;99.90;;;;;;4963978;28;20234;-77
2023/11/07 08:13:53;;;;;;;4.70;1.67;;;10.40;99.90;;;;;;4980484;28;20038;-77
2023/11/07 08:16:40;;;;;;;4.90;1.60;;;10.50;99.90;;;;;;4988107;28;20053;-77
2023/11/07 08:19:26;;;;;;;5.50;2.00;;;10.40;99.90;;;;;;4980069;28;20042;-77
2023/11/07 08:22:12;;;;;;;7.72;1.83;;;10.40;99.90;;;;;;4997756;28;20368;-77
2023/11/07 08:24:59;;;;;;;4.00;1.35;;;10.40;99.90;;;;;;4967251;28;20649;-77
2023/11/07 08:27:45;;;;;;;7.25;2.38;;;10.40;99.90;;;;;;4961432;28;20038;-77
2023/11/07 08:30:31;;;;;;;5.97;1.77;;;10.40;99.90;;;;;;4963719;28;20074;-75
2023/11/07 08:33:16;;;;;;;6.63;1.73;;;10.30;99.90;;;;;;4985285;28;20112;-75
2023/11/07 08:36:05;;;;;;;4.80;1.65;;;10.20;99.90;;;;;;4966950;28;20038;-76
2023/11/07 08:38:51;;;;;;;7.32;2.55;;;10.20;99.90;;;;;;4991575;28;20030;-75
2023/11/07 08:41:37;;;;;;;7.13;2.65;;;10.20;99.90;;;;;;4993782;28;20517;-75
2023/11/07 08:44:23;;;;;;;8.32;2.58;;;10.10;99.90;;;;;;4961280;28;20050;-75
2023/11/07 08:47:10;;;;;;;5.50;2.20;;;10.10;99.90;;;;;;4953738;28;20094;-76
2023/11/07 08:49:57;;;;;;;8.00;2.80;;;10.20;99.90;;;;;;4950206;28;20116;-75
2023/11/07 08:52:43;;;;;;;3.50;1.38;;;10.20;99.90;;;;;;4977511;28;20045;-75
2023/11/07 08:55:29;;;;;;;5.85;1.50;;;10.30;99.90;;;;;;4985578;28;20049;-80
2023/11/07 08:58:16;;;;;;;3.38;1.23;;;10.40;99.90;;;;;;4987281;28;20494;-76
2023/11/07 09:01:04;;;;;;;3.35;1.25;;;10.40;99.90;;;;;;4979235;28;20038;-75
2023/11/07 09:03:51;;;;;;;6.70;1.60;;;10.50;99.90;;;;;;4964981;28;20070;-75
2023/11/07 09:06:39;;;;;;;4.18;1.15;;;10.50;99.90;;;;;;4978076;28;20349;-76
2023/11/07 09:09:29;;;;;;;3.83;1.13;;;10.60;99.90;;;;;;4981207;28;20085;-76
2023/11/07 09:12:15;;;;;;;2.58;0.90;;;10.60;99.90;;;;;;4963879;28;20046;-76
2023/11/07 09:15:05;;;;;;;4.35;0.93;;;10.60;99.90;;;;;;4966299;28;20569;-76
2023/11/07 09:17:51;;;;;;;2.58;1.00;;;10.70;99.90;;;;;;4953425;28;20042;-76
2023/11/07 09:20:37;;;;;;;2.22;0.90;;;10.70;99.90;;;;;;4977413;28;20065;-76
2023/11/07 09:23:23;;;;;;;3.83;0.95;;;10.70;99.90;;;;;;4981013;28;20030;-76
2023/11/07 09:26:09;;;;;;;2.25;0.98;;;10.70;99.90;;;;;;5001721;28;20472;-76
2023/11/07 09:28:55;;;;;;;3.47;1.10;;;10.80;99.90;;;;;;4973708;28;20049;-76
2023/11/07 09:31:41;;;;;;;3.90;1.20;;;10.90;99.90;;;;;;4970530;28;20078;-75
2023/11/07 09:34:27;;;;;;;4.95;1.40;;;11.10;99.90;;;;;;4984912;28;20038;-75
2023/11/07 09:37:15;;;;;;;3.75;1.40;;;11.20;99.90;;;;;;4963866;28;20355;-74
2023/11/07 09:40:01;;;;;;;3.45;1.25;;;11.30;99.90;;;;;;4973774;28;20057;-74
2023/11/07 09:42:48;;;;;;;5.78;1.50;;;11.30;99.90;;;;;;4982019;28;20046;-75
2023/11/07 09:45:35;;;;;;;7.53;1.50;;;11.30;99.90;;;;;;4969387;28;20031;-75
2023/11/07 09:48:21;;;;;;;6.88;1.40;;;11.40;99.90;;;;;;4942565;28;20042;-74
2023/11/07 09:51:08;;;;;;;2.83;1.30;;;11.40;99.90;;;;;;4951992;28;20057;-74
2023/11/07 09:53:54;;;;;;;4.55;1.70;;;11.30;99.90;;;;;;4982829;28;20045;-74
2023/11/07 09:56:40;;;;;;;2.75;1.13;;;11.40;99.90;;;;;;4996129;28;20046;-74
2023/11/07 09:59:41;;;;;;;6.10;1.20;;;11.50;99.90;;;;;;4995448;28;20049;-74
2023/11/07 10:02:27;;;;;;;3.95;1.20;;;11.70;99.90;;;;;;4977295;28;20431;-75
2023/11/07 10:05:13;;;;;;;2.78;0.93;;;11.90;99.90;;;;;;4982324;28;20038;-74
2023/11/07 10:07:59;;;;;;;5.40;1.00;;;12.10;99.90;;;;;;4961520;28;20038;-75
2023/11/07 10:11:11;;;;;;;2.92;0.90;;;12.20;99.90;;;;;;4965763;28;20995;-74
2023/11/07 10:14:02;;;;;;;3.40;1.08;;;12.40;99.90;;;;;;4976478;28;20181;-75
2023/11/07 10:16:53;;;;;;;3.92;1.02;;;12.40;99.90;;;;;;4949104;28;20039;-77
2023/11/07 10:19:38;;;;;;;4.45;1.00;;;12.20;99.90;;;;;;4972763;28;20048;-77
2023/11/07 10:22:25;;;;;;;3.75;0.90;;;11.90;99.90;;;;;;4967619;28;20053;-77
2023/11/07 10:25:29;;;;;;;3.20;0.80;;;12.10;99.90;;;;;;4981501;28;20483;-76
2023/11/07 10:28:15;;;;;;;4.35;0.95;;;12.40;99.90;;;;;;4980822;28;20178;-76
2023/11/07 10:31:01;;;;;;;3.78;1.05;;;12.80;99.90;;;;;;4948551;28;20472;-76
2023/11/07 10:33:47;;;;;;;3.58;0.90;;;13.10;99.90;;;;;;4955274;28;20054;-77
2023/11/07 10:36:39;;;;;;;1.70;0.70;;;13.50;99.90;;;;;;4949511;28;20047;-77
2023/11/07 10:39:26;;;;;;;2.95;1.23;;;14.00;99.90;;;;;;4950392;28;20042;-77
2023/11/07 10:42:19;;;;;;;4.47;1.27;;;14.40;99.90;;;;;;4979007;28;20379;-77
2023/11/07 10:45:10;;;;;;;3.55;1.38;;;14.80;99.90;;;;;;4974536;28;20093;-77
2023/11/07 10:47:55;;;;;;;3.47;1.15;;;14.10;99.90;;;;;;4967191;28;20502;-77
2023/11/07 10:50:43;;;;;;;3.45;1.25;;;13.40;99.90;;;;;;4941645;28;20038;-77
2023/11/07 10:53:30;;;;;;;5.40;0.90;;;13.60;99.90;;;;;;4981637;28;20566;-77
2023/11/07 10:56:20;;;;;;;2.55;1.10;;;13.90;99.90;;;;;;4980877;28;20265;-77
2023/11/07 10:59:16;;;;;;;5.95;1.40;;;13.80;99.90;;;;;;4979068;28;20038;-77
2023/11/07 11:02:03;;;;;;;4.80;1.23;;;13.40;99.90;;;;;;4968391;28;20384;-77
2023/11/07 11:04:50;;;;;;;2.55;1.10;;;13.40;99.90;;;;;;4969025;28;20038;-77
2023/11/07 11:07:36;;;;;;;3.15;0.90;;;13.50;99.90;;;;;;4973587;28;20088;-77
2023/11/07 11:10:27;;;;;;;2.10;0.68;;;13.70;99.90;;;;;;4981366;28;20042;-78
2023/11/07 11:13:15;;;;;;;4.03;0.90;;;13.70;99.90;;;;;;4982592;28;20042;-77
2023/11/07 11:16:02;;;;;;;26.98;1.33;;;13.60;99.90;;;;;;4955329;28;20049;-77
2023/11/07 11:18:59;;;;;;;3.72;0.95;;;13.60;99.90;;;;;;4965813;28;20047;-77
2023/11/07 11:21:45;;;;;;;1.83;0.90;;;13.30;99.90;;;;;;4987341;28;20042;-77
2023/11/07 11:24:46;;;;;;;2.22;0.80;;;12.80;99.90;;;;;;4982397;28;20042;-77
2023/11/07 11:27:45;;;;;;;3.22;1.35;;;12.60;99.90;;;;;;4981473;28;20467;-77
2023/11/07 11:30:32;;;;;;;3.67;1.00;;;12.80;99.90;;;;;;4968459;28;20471;-78
2023/11/07 11:33:19;;;;;;;2.17;0.97;;;12.60;99.90;;;;;;4967211;28;20482;-77
2023/11/07 11:36:44;;;;;;;6.95;1.38;;;12.70;99.90;;;;;;4980140;28;20069;-77
2023/11/07 11:39:30;;;;;;;3.78;1.15;;;13.00;99.90;;;;;;4981840;28;20038;-77
2023/11/07 11:42:16;;;;;;;1.80;0.77;;;13.10;99.90;;;;;;4993349;28;20061;-77
2023/11/07 11:45:27;;;;;;;6.78;1.17;;;12.90;99.90;;;;;;4980633;28;20048;-77
2023/11/07 11:48:13;;;;;;;7.63;1.05;;;13.40;99.90;;;;;;4959047;28;20190;-77
2023/11/07 11:51:31;;;;;;;2.15;0.80;;;13.10;99.90;;;;;;4968477;28;20084;-77
2023/11/07 11:54:26;;;;;;;1.20;0.80;;;13.50;99.90;;;;;;4973796;28;20046;-78
2023/11/07 11:57:12;;;;;;;6.35;1.30;;;14.00;99.90;;;;;;4981640;28;20038;-77
2023/11/07 11:59:59;;;;;;;4.93;1.10;;;14.10;99.90;;;;;;4981031;28;20038;-78
2023/11/07 12:02:45;;;;;;;3.10;1.25;;;14.50;99.90;;;;;;4980501;28;20824;-77
2023/11/07 12:05:31;;;;;;;4.30;1.05;;;14.50;99.90;;;;;;4970563;28;20142;-77
2023/11/07 12:08:35;;;;;;;3.50;1.30;;;14.60;99.90;;;;;;4994657;28;20062;-78
2023/11/07 12:11:21;;;;;;;3.28;1.13;;;14.90;99.90;;;;;;4967471;28;20052;-78
2023/11/07 12:14:09;;;;;;;2.85;1.00;;;15.30;99.90;;;;;;4955723;28;20483;-78
2023/11/07 12:16:55;;;;;;;3.17;1.10;;;15.30;99.90;;;;;;4956422;28;20104;-78
2023/11/07 12:19:43;;;;;;;4.50;1.00;;;15.40;99.90;;;;;;4980480;28;20046;-77
2023/11/07 12:22:30;;;;;;;2.03;0.93;;;15.50;99.90;;;;;;4974575;28;20086;-78
2023/11/07 12:25:17;;;;;;;2.78;1.20;;;15.40;99.90;;;;;;4978917;28;20042;-77
2023/11/07 12:28:04;;;;;;;3.17;1.23;;;15.20;99.90;;;;;;4998031;28;20042;-77
2023/11/07 12:30:56;;;;;;;5.60;1.20;;;15.00;99.90;;;;;;4970843;28;20033;-78
2023/11/07 12:33:42;;;;;;;5.00;1.08;;;14.30;99.90;;;;;;5010384;28;20128;-78
2023/11/07 12:36:28;;;;;;;2.42;0.90;;;13.90;99.90;;;;;;4992021;28;20170;-77
2023/11/07 12:39:14;;;;;;;1.73;0.70;;;13.40;99.90;;;;;;4975306;28;20375;-75
2023/11/07 12:42:00;;;;;;;1.77;0.65;;;13.20;99.90;;;;;;4974837;28;20128;-75
2023/11/07 12:44:49;;;;;;;1.67;0.70;;;13.10;99.90;;;;;;4945713;28;20041;-77
2023/11/07 12:47:35;;;;;;;3.67;0.80;;;13.10;99.90;;;;;;4977167;28;20049;-77
2023/11/07 12:50:26;;;;;;;2.33;0.63;;;13.20;99.90;;;;;;4953623;28;20502;-75
2023/11/07 12:53:14;;;;;;;2.22;0.90;;;13.00;99.90;;;;;;4978057;28;20038;-75
2023/11/07 12:56:00;;;;;;;1.88;0.63;;;12.70;99.90;;;;;;4947227;28;20045;-74
2023/11/07 12:58:47;;;;;;;2.38;0.80;;;12.70;99.90;;;;;;4967927;28;20144;-74
2023/11/07 13:01:35;;;;;;;2.15;0.50;;;12.70;99.90;;;;;;4981077;28;20046;-76
2023/11/07 13:04:23;;;;;;;1.38;0.77;;;12.70;99.90;;;;;;4967827;28;20506;-75
2023/11/07 13:07:15;;;;;;;0.77;0.60;;;12.60;99.90;;;;;;4979261;28;20046;-75
2023/11/07 13:10:11;;;;;;;1.73;0.70;;;12.40;99.90;;;;;;4971736;28;20091;-77
2023/11/07 13:12:57;;;;;;;3.22;0.60;;;12.40;99.90;;;;;;4972342;28;20101;-76
2023/11/07 13:15:43;;;;;;;1.83;0.77;;;12.30;99.90;;;;;;4977985;28;20491;-76
2023/11/07 13:18:29;;;;;;;3.72;1.05;;;12.20;99.90;;;;;;4965113;28;20042;-74
2023/11/07 13:21:16;;;;;;;1.75;0.85;;;12.30;99.90;;;;;;4964411;28;20483;-75
2023/11/07 13:24:03;;;;;;;2.25;0.98;;;12.10;99.90;;;;;;4959757;28;20043;-76
2023/11/07 13:26:52;;;;;;;3.72;0.80;;;12.00;99.90;;;;;;4956926;28;20034;-76
2023/11/07 13:29:41;;;;;;;1.73;0.90;;;12.00;99.90;;;;;;4938258;28;20474;-75
2023/11/07 13:32:27;;;;;;;4.13;1.25;;;12.00;99.90;;;;;;4959014;28;20089;-75
2023/11/07 13:35:13;;;;;;;2.40;1.08;;;12.00;99.90;;;;;;4971443;28;20392;-76
2023/11/07 13:37:59;;;;;;;3.67;1.50;;;12.00;99.90;;;;;;4963137;28;20486;-76
2023/11/07 13:40:45;;;;;;;4.95;1.52;;;12.00;99.90;;;;;;4993527;28;20443;-75
2023/11/07 13:43:31;;;;;;;4.95;2.17;;;12.10;99.90;;;;;;5003982;28;20371;-75
2023/11/07 13:46:17;;;;;;;4.25;1.33;;;12.20;99.90;;;;;;4981445;28;20573;-75
2023/11/07 13:49:03;;;;;;;4.50;1.67;;;12.30;99.90;;;;;;4978201;28;20101;-76
2023/11/07 13:51:50;;;;;;;4.57;1.63;;;12.30;99.90;;;;;;4977538;28;20042;-75
2023/11/07 13:54:37;;;;;;;2.25;1.08;;;12.50;99.90;;;;;;4948512;28;20053;-75
2023/11/07 13:57:23;;;;;;;3.78;1.10;;;12.50;99.90;;;;;;4954760;28;20490;-76
2023/11/07 14:00:12;;;;;;;4.18;1.05;;;12.30;99.90;;;;;;4969235;28;20113;-75
2023/11/07 14:02:59;;;;;;;3.03;1.10;;;12.20;99.90;;;;;;4963089;28;20038;-75
2023/11/07 14:05:45;;;;;;;2.78;1.05;;;12.10;99.90;;;;;;4957875;28;20779;-75
2023/11/07 14:08:31;;;;;;;3.40;1.10;;;12.10;99.90;;;;;;4967113;28;20042;-75
2023/11/07 14:11:17;;;;;;;6.00;1.20;;;12.10;99.90;;;;;;4981938;28;20057;-75
2023/11/07 14:14:06;;;;;;;3.60;0.98;;;12.00;99.90;;;;;;4964737;28;20034;-76
2023/11/07 14:16:53;;;;;;;3.33;0.90;;;11.90;99.90;;;;;;4981946;28;20069;-75
2023/11/07 14:19:39;;;;;;;2.38;0.82;;;11.90;99.90;;;;;;4973852;28;20490;-75
2023/11/07 14:22:28;;;;;;;2.92;1.17;;;12.00;99.90;;;;;;4979517;28;20050;-75
2023/11/07 14:25:17;;;;;;;3.83;0.98;;;12.10;99.90;;;;;;4961226;28;20367;-76
2023/11/07 14:28:06;;;;;;;3.38;0.82;;;12.10;99.90;;;;;;4965628;28;20096;-75
2023/11/07 14:30:52;;;;;;;3.22;0.85;;;11.90;99.90;;;;;;4960277;28;20042;-75
2023/11/07 14:33:38;;;;;;;2.70;1.10;;;11.90;99.90;;;;;;4972753;28;20144;-75
2023/11/07 14:36:24;;;;;;;2.53;1.08;;;11.80;99.90;;;;;;4988705;28;20042;-75
2023/11/07 14:39:12;;;;;;;3.38;1.05;;;11.80;99.90;;;;;;4965030;28;20125;-75